sensor_id;sensor_type;location;lat;lon;timestamp;pressure;altitude;pressure_sealevel;temperature;humidity
62544;BME280;48597;49.030;1.822;2022-08-19T00:01:50;100868.06;;;27.14;40.24
62544;BME280;48597;49.030;1.822;2022-08-19T00:04:18;100869.31;;;27.12;40.18
62544;BME280;48597;49.030;1.822;2022-08-19T00:06:45;100869.50;;;27.10;40.40
62544;BME280;48597;49.030;1.822;2022-08-19T00:09:13;100874.25;;;27.08;40.17
62544;BME280;48597;49.030;1.822;2022-08-19T00:11:40;100873.59;;;27.06;40.32
62544;BME280;48597;49.030;1.822;2022-08-19T00:14:08;100872.97;;;27.04;40.23
62544;BME280;48597;49.030;1.822;2022-08-19T00:16:36;100866.91;;;27.02;40.20
62544;BME280;48597;49.030;1.822;2022-08-19T00:19:02;100869.00;;;27.00;40.08
62544;BME280;48597;49.030;1.822;2022-08-19T00:21:27;100858.56;;;26.97;40.26
62544;BME280;48597;49.030;1.822;2022-08-19T00:23:56;100860.22;;;26.98;40.33
62544;BME280;48597;49.030;1.822;2022-08-19T00:26:27;100859.63;;;26.96;40.14
62544;BME280;48597;49.030;1.822;2022-08-19T00:28:53;100862.50;;;26.95;40.24
62544;BME280;48597;49.030;1.822;2022-08-19T00:31:18;100861.88;;;26.92;40.12
62544;BME280;48597;49.030;1.822;2022-08-19T00:33:43;100874.72;;;26.90;40.00
62544;BME280;48597;49.030;1.822;2022-08-19T00:36:09;100865.13;;;26.88;40.36
62544;BME280;48597;49.030;1.822;2022-08-19T00:38:37;100864.72;;;26.84;40.07
62544;BME280;48597;49.030;1.822;2022-08-19T00:41:07;100871.94;;;26.84;40.37
62544;BME280;48597;49.030;1.822;2022-08-19T00:43:33;100874.03;;;26.82;40.05
62544;BME280;48597;49.030;1.822;2022-08-19T00:45:59;100870.69;;;26.80;40.22
62544;BME280;48597;49.030;1.822;2022-08-19T00:48:24;100870.88;;;26.78;40.15
62544;BME280;48597;49.030;1.822;2022-08-19T00:50:52;100878.53;;;26.75;40.38
62544;BME280;48597;49.030;1.822;2022-08-19T00:53:22;100883.94;;;26.75;40.12
62544;BME280;48597;49.030;1.822;2022-08-19T00:55:50;100878.09;;;26.71;40.30
62544;BME280;48597;49.030;1.822;2022-08-19T00:58:18;100876.63;;;26.68;40.13
62544;BME280;48597;49.030;1.822;2022-08-19T01:00:45;100875.13;;;26.66;40.27
62544;BME280;48597;49.030;1.822;2022-08-19T01:03:15;100887.16;;;26.63;40.40
62544;BME280;48597;49.030;1.822;2022-08-19T01:05:42;100878.22;;;26.63;40.36
62544;BME280;48597;49.030;1.822;2022-08-19T01:08:09;100882.13;;;26.60;40.35
62544;BME280;48597;49.030;1.822;2022-08-19T01:10:40;100882.34;;;26.59;40.46
62544;BME280;48597;49.030;1.822;2022-08-19T01:13:07;100887.09;;;26.57;40.37
62544;BME280;48597;49.030;1.822;2022-08-19T01:15:35;100889.16;;;26.55;40.48
62544;BME280;48597;49.030;1.822;2022-08-19T01:18:08;100888.31;;;26.54;40.40
62544;BME280;48597;49.030;1.822;2022-08-19T01:20:34;100891.22;;;26.53;40.62
62544;BME280;48597;49.030;1.822;2022-08-19T01:23:01;100889.72;;;26.50;40.74
62544;BME280;48597;49.030;1.822;2022-08-19T01:25:30;100888.06;;;26.49;40.74
62544;BME280;48597;49.030;1.822;2022-08-19T01:27:57;100891.97;;;26.47;40.73
62544;BME280;48597;49.030;1.822;2022-08-19T01:30:28;100891.16;;;26.46;40.70
62544;BME280;48597;49.030;1.822;2022-08-19T01:32:55;100881.53;;;26.43;40.81
62544;BME280;48597;49.030;1.822;2022-08-19T01:35:22;100880.50;;;26.44;40.76
62544;BME280;48597;49.030;1.822;2022-08-19T01:37:55;100891.50;;;26.43;40.68
62544;BME280;48597;49.030;1.822;2022-08-19T01:40:24;100894.41;;;26.41;40.72
62544;BME280;48597;49.030;1.822;2022-08-19T01:42:52;100891.88;;;26.40;40.89
62544;BME280;48597;49.030;1.822;2022-08-19T01:45:19;100894.78;;;26.38;40.93
62544;BME280;48597;49.030;1.822;2022-08-19T01:47:44;100905.75;;;26.37;40.85
62544;BME280;48597;49.030;1.822;2022-08-19T01:50:10;100898.88;;;26.34;40.76
62544;BME280;48597;49.030;1.822;2022-08-19T01:52:37;100899.91;;;26.33;40.75
62544;BME280;48597;49.030;1.822;2022-08-19T01:55:06;100905.50;;;26.32;40.81
62544;BME280;48597;49.030;1.822;2022-08-19T01:57:32;100899.25;;;26.31;40.83
62544;BME280;48597;49.030;1.822;2022-08-19T01:59:58;100898.44;;;26.31;40.93
62544;BME280;48597;49.030;1.822;2022-08-19T02:02:24;100897.75;;;26.29;40.96
62544;BME280;48597;49.030;1.822;2022-08-19T02:04:50;100893.41;;;26.28;40.89
62544;BME280;48597;49.030;1.822;2022-08-19T02:07:19;100895.47;;;26.26;40.87
62544;BME280;48597;49.030;1.822;2022-08-19T02:09:45;100894.63;;;26.25;41.01
62544;BME280;48597;49.030;1.822;2022-08-19T02:12:11;100899.38;;;26.23;40.98
62544;BME280;48597;49.030;1.822;2022-08-19T02:14:36;100893.16;;;26.23;41.01
62544;BME280;48597;49.030;1.822;2022-08-19T02:17:03;100902.28;;;26.22;40.95
62544;BME280;48597;49.030;1.822;2022-08-19T02:19:28;100898.91;;;26.19;41.11
62544;BME280;48597;49.030;1.822;2022-08-19T02:21:53;100901.81;;;26.18;41.00
62544;BME280;48597;49.030;1.822;2022-08-19T02:24:19;100898.28;;;26.17;40.98
62544;BME280;48597;49.030;1.822;2022-08-19T02:26:44;100896.59;;;26.16;40.99
62544;BME280;48597;49.030;1.822;2022-08-19T02:29:10;100905.72;;;26.15;41.08
62544;BME280;48597;49.030;1.822;2022-08-19T02:31:35;100897.00;;;26.13;41.14
62544;BME280;48597;49.030;1.822;2022-08-19T02:34:01;100902.41;;;26.13;41.08
62544;BME280;48597;49.030;1.822;2022-08-19T02:36:27;100903.41;;;26.12;41.08
62544;BME280;48597;49.030;1.822;2022-08-19T02:38:53;100908.16;;;26.10;41.15
62544;BME280;48597;49.030;1.822;2022-08-19T02:41:27;100901.75;;;26.11;41.24
62544;BME280;48597;49.030;1.822;2022-08-19T02:43:57;100906.47;;;26.09;41.19
62544;BME280;48597;49.030;1.822;2022-08-19T02:46:26;100899.41;;;26.08;41.09
62544;BME280;48597;49.030;1.822;2022-08-19T02:48:53;100906.66;;;26.08;41.08
62544;BME280;48597;49.030;1.822;2022-08-19T02:51:23;100896.09;;;26.06;41.21
62544;BME280;48597;49.030;1.822;2022-08-19T02:53:49;100898.78;;;26.06;41.21
62544;BME280;48597;49.030;1.822;2022-08-19T02:56:14;100899.78;;;26.05;41.38
62544;BME280;48597;49.030;1.822;2022-08-19T02:58:40;100896.47;;;26.03;41.37
62544;BME280;48597;49.030;1.822;2022-08-19T03:01:06;100901.03;;;26.03;41.29
62544;BME280;48597;49.030;1.822;2022-08-19T03:03:31;100900.19;;;26.02;41.42
62544;BME280;48597;49.030;1.822;2022-08-19T03:06:06;100903.06;;;26.01;41.20
62544;BME280;48597;49.030;1.822;2022-08-19T03:08:31;100896.00;;;26.00;41.58
62544;BME280;48597;49.030;1.822;2022-08-19T03:10:57;100896.00;;;26.00;41.23
62544;BME280;48597;49.030;1.822;2022-08-19T03:13:23;100886.41;;;25.97;41.57
62544;BME280;48597;49.030;1.822;2022-08-19T03:15:49;100883.72;;;25.97;41.61
62544;BME280;48597;49.030;1.822;2022-08-19T03:18:15;100883.91;;;25.95;41.71
62544;BME280;48597;49.030;1.822;2022-08-19T03:20:52;100889.31;;;25.95;41.70
62544;BME280;48597;49.030;1.822;2022-08-19T03:23:19;100884.94;;;25.94;41.90
62544;BME280;48597;49.030;1.822;2022-08-19T03:25:47;100892.22;;;25.94;41.67
62544;BME280;48597;49.030;1.822;2022-08-19T03:28:14;100893.22;;;25.93;41.74
62544;BME280;48597;49.030;1.822;2022-08-19T03:30:42;100888.84;;;25.92;41.74
62544;BME280;48597;49.030;1.822;2022-08-19T03:33:09;100889.06;;;25.90;41.95
62544;BME280;48597;49.030;1.822;2022-08-19T03:35:35;100900.66;;;25.91;42.01
62544;BME280;48597;49.030;1.822;2022-08-19T03:38:05;100899.00;;;25.90;42.05
62544;BME280;48597;49.030;1.822;2022-08-19T03:40:32;100888.38;;;25.88;42.04
62544;BME280;48597;49.030;1.822;2022-08-19T03:43:00;100888.38;;;25.88;42.08
62544;BME280;48597;49.030;1.822;2022-08-19T03:45:25;100889.22;;;25.89;42.02
62544;BME280;48597;49.030;1.822;2022-08-19T03:47:51;100878.81;;;25.86;42.23
62544;BME280;48597;49.030;1.822;2022-08-19T03:50:16;100878.81;;;25.86;42.24
62544;BME280;48597;49.030;1.822;2022-08-19T03:52:48;100879.66;;;25.86;42.34
62544;BME280;48597;49.030;1.822;2022-08-19T03:55:13;100884.19;;;25.86;42.26
62544;BME280;48597;49.030;1.822;2022-08-19T03:57:39;100878.81;;;25.86;42.43
62544;BME280;48597;49.030;1.822;2022-08-19T04:00:04;100885.06;;;25.86;42.49
62544;BME280;48597;49.030;1.822;2022-08-19T04:02:31;100881.50;;;25.86;42.35
62544;BME280;48597;49.030;1.822;2022-08-19T04:04:57;100877.13;;;25.85;42.50
62544;BME280;48597;49.030;1.822;2022-08-19T04:07:22;100879.00;;;25.84;42.62
62544;BME280;48597;49.030;1.822;2022-08-19T04:09:48;100887.09;;;25.84;42.83
62544;BME280;48597;49.030;1.822;2022-08-19T04:12:14;100885.44;;;25.83;42.73
62544;BME280;48597;49.030;1.822;2022-08-19T04:14:40;100880.03;;;25.83;42.71
62544;BME280;48597;49.030;1.822;2022-08-19T04:17:05;100876.50;;;25.83;42.80
62544;BME280;48597;49.030;1.822;2022-08-19T04:19:31;100880.22;;;25.82;43.00
62544;BME280;48597;49.030;1.822;2022-08-19T04:21:57;100881.06;;;25.82;42.86
62544;BME280;48597;49.030;1.822;2022-08-19T04:24:23;100882.91;;;25.82;42.88
62544;BME280;48597;49.030;1.822;2022-08-19T04:26:49;100882.06;;;25.81;42.98
62544;BME280;48597;49.030;1.822;2022-08-19T04:29:19;100880.41;;;25.80;43.08
62544;BME280;48597;49.030;1.822;2022-08-19T04:31:48;100878.53;;;25.81;43.01
62544;BME280;48597;49.030;1.822;2022-08-19T04:34:17;100879.56;;;25.80;43.22
62544;BME280;48597;49.030;1.822;2022-08-19T04:36:44;100874.19;;;25.80;43.19
62544;BME280;48597;49.030;1.822;2022-08-19T04:39:15;100878.75;;;25.79;43.12
62544;BME280;48597;49.030;1.822;2022-08-19T04:41:41;100876.22;;;25.78;43.24
62544;BME280;48597;49.030;1.822;2022-08-19T04:44:26;100881.59;;;25.78;43.28
62544;BME280;48597;49.030;1.822;2022-08-19T04:46:52;100884.31;;;25.78;43.25
62544;BME280;48597;49.030;1.822;2022-08-19T04:49:19;100884.31;;;25.78;43.13
62544;BME280;48597;49.030;1.822;2022-08-19T04:51:47;100886.00;;;25.79;43.27
62544;BME280;48597;49.030;1.822;2022-08-19T04:54:15;100897.78;;;25.78;43.29
62544;BME280;48597;49.030;1.822;2022-08-19T04:56:41;100904.19;;;25.77;43.41
62544;BME280;48597;49.030;1.822;2022-08-19T04:59:07;100901.47;;;25.77;43.37
62544;BME280;48597;49.030;1.822;2022-08-19T05:01:34;100902.50;;;25.76;43.46
62544;BME280;48597;49.030;1.822;2022-08-19T05:04:03;100906.88;;;25.77;43.32
62544;BME280;48597;49.030;1.822;2022-08-19T05:06:30;100914.13;;;25.76;43.52
62544;BME280;48597;49.030;1.822;2022-08-19T05:08:58;100911.63;;;25.75;43.49
62544;BME280;48597;49.030;1.822;2022-08-19T05:11:27;100916.00;;;25.76;43.56
62544;BME280;48597;49.030;1.822;2022-08-19T05:13:54;100905.19;;;25.76;43.37
62544;BME280;48597;49.030;1.822;2022-08-19T05:16:21;100909.09;;;25.73;43.51
62544;BME280;48597;49.030;1.822;2022-08-19T05:18:47;100922.41;;;25.75;43.69
62544;BME280;48597;49.030;1.822;2022-08-19T05:21:32;100915.31;;;25.74;43.78
62544;BME280;48597;49.030;1.822;2022-08-19T05:24:17;100922.41;;;25.75;44.04
62544;BME280;48597;49.030;1.822;2022-08-19T05:26:45;100927.97;;;25.73;44.50
62544;BME280;48597;49.030;1.822;2022-08-19T05:29:13;100927.97;;;25.73;44.86
62544;BME280;48597;49.030;1.822;2022-08-19T05:31:39;100924.81;;;25.69;44.96
62544;BME280;48597;49.030;1.822;2022-08-19T05:34:05;100922.94;;;25.70;44.99
62544;BME280;48597;49.030;1.822;2022-08-19T05:36:37;100931.22;;;25.68;45.05
62544;BME280;48597;49.030;1.822;2022-08-19T05:39:13;100925.22;;;25.66;45.37
62544;BME280;48597;49.030;1.822;2022-08-19T05:41:44;100914.44;;;25.66;45.38
62544;BME280;48597;49.030;1.822;2022-08-19T05:44:10;100918.13;;;25.65;45.19
62544;BME280;48597;49.030;1.822;2022-08-19T05:46:37;100920.81;;;25.65;45.55
62544;BME280;48597;49.030;1.822;2022-08-19T05:49:04;100911.25;;;25.63;45.48
62544;BME280;48597;49.030;1.822;2022-08-19T05:51:30;100920.19;;;25.63;45.76
62544;BME280;48597;49.030;1.822;2022-08-19T05:53:56;100919.34;;;25.63;45.77
62544;BME280;48597;49.030;1.822;2022-08-19T05:56:23;100912.09;;;25.63;45.87
62544;BME280;48597;49.030;1.822;2022-08-19T05:58:48;100914.13;;;25.61;45.97
62544;BME280;48597;49.030;1.822;2022-08-19T06:01:16;100912.09;;;25.63;46.05
62544;BME280;48597;49.030;1.822;2022-08-19T06:03:42;100910.44;;;25.62;46.03
62544;BME280;48597;49.030;1.822;2022-08-19T06:06:09;100916.66;;;25.63;46.21
62544;BME280;48597;49.030;1.822;2022-08-19T06:08:36;100913.13;;;25.62;46.24
62544;BME280;48597;49.030;1.822;2022-08-19T06:14:03;100918.69;;;25.61;46.50
62544;BME280;48597;49.030;1.822;2022-08-19T06:16:29;100915.16;;;25.60;46.63
62544;BME280;48597;49.030;1.822;2022-08-19T06:19:02;100907.28;;;25.59;46.57
62544;BME280;48597;49.030;1.822;2022-08-19T06:21:29;100908.94;;;25.60;47.00
62544;BME280;48597;49.030;1.822;2022-08-19T06:23:56;100908.72;;;25.61;46.66
62544;BME280;48597;49.030;1.822;2022-08-19T06:26:22;100907.91;;;25.61;47.03
62544;BME280;48597;49.030;1.822;2022-08-19T06:28:48;100914.13;;;25.61;47.06
62544;BME280;48597;49.030;1.822;2022-08-19T06:31:20;100912.09;;;25.63;47.00
62544;BME280;48597;49.030;1.822;2022-08-19T06:33:47;100915.81;;;25.62;46.82
62544;BME280;48597;49.030;1.822;2022-08-19T06:36:36;100912.25;;;25.62;46.83
62544;BME280;48597;49.030;1.822;2022-08-19T06:39:07;100914.97;;;25.62;46.86
62544;BME280;48597;49.030;1.822;2022-08-19T06:41:42;100911.63;;;25.60;46.92
62544;BME280;48597;49.030;1.822;2022-08-19T06:44:08;100925.75;;;25.62;47.05
62544;BME280;48597;49.030;1.822;2022-08-19T06:46:35;100913.13;;;25.62;46.83
62544;BME280;48597;49.030;1.822;2022-08-19T06:49:00;100922.88;;;25.63;46.86
62544;BME280;48597;49.030;1.822;2022-08-19T06:51:26;100913.97;;;25.63;47.00
62544;BME280;48597;49.030;1.822;2022-08-19T06:53:53;100928.25;;;25.63;47.02
62544;BME280;48597;49.030;1.822;2022-08-19T06:56:22;100928.06;;;25.65;46.81
62544;BME280;48597;49.030;1.822;2022-08-19T06:58:50;100925.38;;;25.65;46.83
62544;BME280;48597;49.030;1.822;2022-08-19T07:01:18;100930.59;;;25.66;46.93
62544;BME280;48597;49.030;1.822;2022-08-19T07:03:43;100929.56;;;25.67;46.83
62544;BME280;48597;49.030;1.822;2022-08-19T07:06:12;100933.94;;;25.68;46.69
62544;BME280;48597;49.030;1.822;2022-08-19T07:08:39;100931.44;;;25.67;46.86
62544;BME280;48597;49.030;1.822;2022-08-19T07:11:09;100930.59;;;25.66;46.86
62544;BME280;48597;49.030;1.822;2022-08-19T07:13:36;100940.50;;;25.66;47.01
62544;BME280;48597;49.030;1.822;2022-08-19T07:16:09;100942.38;;;25.65;46.91
62544;BME280;48597;49.030;1.822;2022-08-19T07:18:35;100939.69;;;25.65;46.97
62544;BME280;48597;49.030;1.822;2022-08-19T07:21:12;100941.53;;;25.65;47.01
62544;BME280;48597;49.030;1.822;2022-08-19T07:23:39;100939.69;;;25.65;47.04
62544;BME280;48597;49.030;1.822;2022-08-19T07:26:06;100931.59;;;25.65;47.19
62544;BME280;48597;49.030;1.822;2022-08-19T07:28:32;100944.06;;;25.66;47.10
62544;BME280;48597;49.030;1.822;2022-08-19T07:30:57;100945.75;;;25.67;47.17
62544;BME280;48597;49.030;1.822;2022-08-19T07:33:23;100948.44;;;25.67;46.92
62544;BME280;48597;49.030;1.822;2022-08-19T07:35:48;100945.75;;;25.67;47.13
62544;BME280;48597;49.030;1.822;2022-08-19T07:38:15;100937.44;;;25.69;46.88
62544;BME280;48597;49.030;1.822;2022-08-19T07:40:41;100947.41;;;25.68;47.10
62544;BME280;48597;49.030;1.822;2022-08-19T07:43:08;100938.47;;;25.68;47.08
62544;BME280;48597;49.030;1.822;2022-08-19T07:45:34;100939.97;;;25.70;47.02
62544;BME280;48597;49.030;1.822;2022-08-19T07:47:59;100940.81;;;25.71;47.09
62544;BME280;48597;49.030;1.822;2022-08-19T07:50:26;100938.28;;;25.69;46.88
62544;BME280;48597;49.030;1.822;2022-08-19T07:52:51;100936.41;;;25.70;46.96
62544;BME280;48597;49.030;1.822;2022-08-19T07:55:22;100943.66;;;25.69;47.08
62544;BME280;48597;49.030;1.822;2022-08-19T07:57:48;100944.50;;;25.70;47.17
62544;BME280;48597;49.030;1.822;2022-08-19T08:00:14;100942.84;;;25.69;47.16
62544;BME280;48597;49.030;1.822;2022-08-19T08:02:40;100937.44;;;25.69;46.94
62544;BME280;48597;49.030;1.822;2022-08-19T08:05:08;100940.81;;;25.71;46.91
62544;BME280;48597;49.030;1.822;2022-08-19T08:07:52;100946.00;;;25.73;46.74
62544;BME280;48597;49.030;1.822;2022-08-19T08:10:36;100947.03;;;25.71;47.00
62544;BME280;48597;49.030;1.822;2022-08-19T08:13:02;100951.59;;;25.71;47.08
62544;BME280;48597;49.030;1.822;2022-08-19T08:15:30;100938.13;;;25.71;47.08
62544;BME280;48597;49.030;1.822;2022-08-19T08:17:56;100939.13;;;25.70;47.05
62544;BME280;48597;49.030;1.822;2022-08-19T08:20:23;100944.34;;;25.71;47.14
62544;BME280;48597;49.030;1.822;2022-08-19T08:22:48;100950.56;;;25.72;46.84
62544;BME280;48597;49.030;1.822;2022-08-19T08:25:33;100951.41;;;25.73;46.83
62544;BME280;48597;49.030;1.822;2022-08-19T08:28:01;100951.19;;;25.74;46.88
62544;BME280;48597;49.030;1.822;2022-08-19T08:30:29;100950.38;;;25.74;46.85
62544;BME280;48597;49.030;1.822;2022-08-19T08:32:54;100947.88;;;25.72;46.96
62544;BME280;48597;49.030;1.822;2022-08-19T08:35:22;100953.06;;;25.74;47.03
62544;BME280;48597;49.030;1.822;2022-08-19T08:37:49;100952.06;;;25.75;46.86
62544;BME280;48597;49.030;1.822;2022-08-19T08:40:53;100958.28;;;25.75;46.96
62544;BME280;48597;49.030;1.822;2022-08-19T08:43:38;100959.13;;;25.76;46.85
62544;BME280;48597;49.030;1.822;2022-08-19T08:46:15;100959.13;;;25.76;46.85
62544;BME280;48597;49.030;1.822;2022-08-19T08:49:04;100956.22;;;25.77;46.92
62544;BME280;48597;49.030;1.822;2022-08-19T08:51:40;100955.41;;;25.77;46.77
62544;BME280;48597;49.030;1.822;2022-08-19T08:54:12;100956.22;;;25.77;46.87
62544;BME280;48597;49.030;1.822;2022-08-19T08:56:40;100953.53;;;25.77;46.74
62544;BME280;48597;49.030;1.822;2022-08-19T08:59:12;100948.00;;;25.79;46.77
62544;BME280;48597;49.030;1.822;2022-08-19T09:01:42;100953.41;;;25.79;46.93
62544;BME280;48597;49.030;1.822;2022-08-19T09:04:07;100955.06;;;25.80;46.89
62544;BME280;48597;49.030;1.822;2022-08-19T09:09:50;100955.06;;;25.80;46.95
62544;BME280;48597;49.030;1.822;2022-08-19T09:15:02;100949.66;;;25.80;46.85
62544;BME280;48597;49.030;1.822;2022-08-19T09:17:30;100952.38;;;25.80;46.71
62544;BME280;48597;49.030;1.822;2022-08-19T09:20:05;100947.81;;;25.80;46.80
62544;BME280;48597;49.030;1.822;2022-08-19T09:22:34;100958.38;;;25.82;46.68
62544;BME280;48597;49.030;1.822;2022-08-19T09:25:01;100960.91;;;25.83;46.75
62544;BME280;48597;49.030;1.822;2022-08-19T09:27:28;100959.25;;;25.82;46.86
62544;BME280;48597;49.030;1.822;2022-08-19T09:29:54;100954.69;;;25.83;46.88
62544;BME280;48597;49.030;1.822;2022-08-19T09:32:21;100960.09;;;25.83;46.80
62544;BME280;48597;49.030;1.822;2022-08-19T09:34:47;100954.69;;;25.83;46.88
62544;BME280;48597;49.030;1.822;2022-08-19T09:37:13;100962.59;;;25.84;46.62
62544;BME280;48597;49.030;1.822;2022-08-19T09:39:39;100963.41;;;25.85;46.76
62544;BME280;48597;49.030;1.822;2022-08-19T09:42:08;100962.78;;;25.83;46.71
62544;BME280;48597;49.030;1.822;2022-08-19T09:44:39;100953.84;;;25.82;46.79
62544;BME280;48597;49.030;1.822;2022-08-19T09:47:05;100958.03;;;25.85;46.80
62544;BME280;48597;49.030;1.822;2022-08-19T09:49:31;100955.31;;;25.85;46.73
62544;BME280;48597;49.030;1.822;2022-08-19T09:51:56;100960.56;;;25.86;46.72
62544;BME280;48597;49.030;1.822;2022-08-19T09:54:23;100957.19;;;25.84;46.69
62544;BME280;48597;49.030;1.822;2022-08-19T09:56:48;100966.94;;;25.85;46.86
62544;BME280;48597;49.030;1.822;2022-08-19T09:59:14;100953.47;;;25.85;46.76
62544;BME280;48597;49.030;1.822;2022-08-19T10:01:39;100965.28;;;25.84;46.72
62544;BME280;48597;49.030;1.822;2022-08-19T10:04:05;100960.91;;;25.83;46.81
62544;BME280;48597;49.030;1.822;2022-08-19T10:06:35;100959.41;;;25.81;46.83
62544;BME280;48597;49.030;1.822;2022-08-19T10:09:02;100960.25;;;25.81;46.72
62544;BME280;48597;49.030;1.822;2022-08-19T10:11:32;100956.72;;;25.81;46.79
62544;BME280;48597;49.030;1.822;2022-08-19T10:13:58;100959.41;;;25.81;46.93
62544;BME280;48597;49.030;1.822;2022-08-19T10:16:25;100962.94;;;25.81;46.92
62544;BME280;48597;49.030;1.822;2022-08-19T10:18:52;100963.78;;;25.82;46.82
62544;BME280;48597;49.030;1.822;2022-08-19T10:21:22;100958.38;;;25.82;46.79
62544;BME280;48597;49.030;1.822;2022-08-19T10:23:51;100963.41;;;25.85;46.65
62544;BME280;48597;49.030;1.822;2022-08-19T10:26:24;100960.09;;;25.83;46.72
62544;BME280;48597;49.030;1.822;2022-08-19T10:28:50;100961.09;;;25.82;46.73
62544;BME280;48597;49.030;1.822;2022-08-19T10:31:21;100957.38;;;25.83;46.77
62544;BME280;48597;49.030;1.822;2022-08-19T10:33:48;100962.59;;;25.84;46.86
62544;BME280;48597;49.030;1.822;2022-08-19T10:36:20;100957.19;;;25.84;46.76
62544;BME280;48597;49.030;1.822;2022-08-19T10:38:49;100952.63;;;25.85;46.79
62544;BME280;48597;49.030;1.822;2022-08-19T10:41:18;100952.81;;;25.83;46.81
62544;BME280;48597;49.030;1.822;2022-08-19T10:43:44;100952.81;;;25.83;46.79
62544;BME280;48597;49.030;1.822;2022-08-19T10:46:12;100949.94;;;25.85;46.89
62544;BME280;48597;49.030;1.822;2022-08-19T10:48:38;100958.03;;;25.85;46.83
62544;BME280;48597;49.030;1.822;2022-08-19T10:51:04;100951.59;;;25.86;46.62
62544;BME280;48597;49.030;1.822;2022-08-19T10:53:49;100955.31;;;25.85;46.84
62544;BME280;48597;49.030;1.822;2022-08-19T10:56:15;100952.63;;;25.85;46.78
62544;BME280;48597;49.030;1.822;2022-08-19T10:58:59;100957.19;;;25.84;46.84
62544;BME280;48597;49.030;1.822;2022-08-19T11:01:26;100963.41;;;25.85;46.80
62544;BME280;48597;49.030;1.822;2022-08-19T11:03:52;100961.75;;;25.84;46.83
62544;BME280;48597;49.030;1.822;2022-08-19T11:06:18;100959.06;;;25.84;46.71
62544;BME280;48597;49.030;1.822;2022-08-19T11:08:44;100959.69;;;25.86;46.73
62544;BME280;48597;49.030;1.822;2022-08-19T11:11:11;100953.47;;;25.85;46.79
62544;BME280;48597;49.030;1.822;2022-08-19T11:13:41;100951.59;;;25.86;46.82
62544;BME280;48597;49.030;1.822;2022-08-19T11:16:13;100947.06;;;25.86;46.59
62544;BME280;48597;49.030;1.822;2022-08-19T11:18:45;100958.84;;;25.85;46.70
62544;BME280;48597;49.030;1.822;2022-08-19T11:21:19;100946.88;;;25.88;46.51
62544;BME280;48597;49.030;1.822;2022-08-19T11:23:47;100948.72;;;25.87;46.81
62544;BME280;48597;49.030;1.822;2022-08-19T11:26:15;100956.00;;;25.87;46.65
62544;BME280;48597;49.030;1.822;2022-08-19T11:28:40;100949.75;;;25.86;46.71
62544;BME280;48597;49.030;1.822;2022-08-19T11:31:14;100948.06;;;25.85;46.77
62544;BME280;48597;49.030;1.822;2022-08-19T11:33:40;100944.53;;;25.85;46.75
62544;BME280;48597;49.030;1.822;2022-08-19T11:36:06;100942.69;;;25.85;46.73
62544;BME280;48597;49.030;1.822;2022-08-19T11:38:33;100947.91;;;25.87;46.62
62544;BME280;48597;49.030;1.822;2022-08-19T11:41:00;100946.22;;;25.86;46.78
62544;BME280;48597;49.030;1.822;2022-08-19T11:43:27;100943.50;;;25.86;46.82
62544;BME280;48597;49.030;1.822;2022-08-19T11:45:54;100948.72;;;25.87;46.70
62544;BME280;48597;49.030;1.822;2022-08-19T11:48:21;100948.72;;;25.87;46.70
62544;BME280;48597;49.030;1.822;2022-08-19T11:50:50;100949.75;;;25.86;46.68
62544;BME280;48597;49.030;1.822;2022-08-19T11:53:19;100956.00;;;25.87;46.82
62544;BME280;48597;49.030;1.822;2022-08-19T11:55:49;100956.81;;;25.87;46.68
62544;BME280;48597;49.030;1.822;2022-08-19T11:58:16;100959.69;;;25.86;46.72
62544;BME280;48597;49.030;1.822;2022-08-19T12:00:42;100954.28;;;25.86;46.65
62544;BME280;48597;49.030;1.822;2022-08-19T12:03:11;100960.56;;;25.86;46.58
62544;BME280;48597;49.030;1.822;2022-08-19T12:05:37;100959.69;;;25.86;46.71
62544;BME280;48597;49.030;1.822;2022-08-19T12:08:03;100950.59;;;25.87;46.56
62544;BME280;48597;49.030;1.822;2022-08-19T12:10:28;100954.75;;;25.89;46.58
62544;BME280;48597;49.030;1.822;2022-08-19T12:12:54;100950.22;;;25.90;46.56
62544;BME280;48597;49.030;1.822;2022-08-19T12:15:19;100953.09;;;25.88;46.67
62544;BME280;48597;49.030;1.822;2022-08-19T12:17:44;100947.69;;;25.88;46.53
62544;BME280;48597;49.030;1.822;2022-08-19T12:20:11;100955.16;;;25.86;46.64
62544;BME280;48597;49.030;1.822;2022-08-19T12:22:38;100951.59;;;25.86;46.69
62544;BME280;48597;49.030;1.822;2022-08-19T12:25:05;100957.66;;;25.88;46.71
62544;BME280;48597;49.030;1.822;2022-08-19T12:27:30;100950.41;;;25.88;46.66
62544;BME280;48597;49.030;1.822;2022-08-19T12:29:56;100959.53;;;25.87;46.60
62544;BME280;48597;49.030;1.822;2022-08-19T12:32:22;100953.94;;;25.89;46.67
62544;BME280;48597;49.030;1.822;2022-08-19T12:34:49;100963.50;;;25.91;46.69
62544;BME280;48597;49.030;1.822;2022-08-19T12:37:15;100966.41;;;25.90;46.56
62544;BME280;48597;49.030;1.822;2022-08-19T12:39:42;100962.47;;;25.92;46.41
62544;BME280;48597;49.030;1.822;2022-08-19T12:42:09;100946.50;;;25.91;46.42
62544;BME280;48597;49.030;1.822;2022-08-19T12:44:37;100948.16;;;25.92;46.40
62544;BME280;48597;49.030;1.822;2022-08-19T12:47:05;100953.56;;;25.92;46.58
62544;BME280;48597;49.030;1.822;2022-08-19T12:49:32;100943.97;;;25.89;46.68
62544;BME280;48597;49.030;1.822;2022-08-19T12:52:06;100950.88;;;25.92;46.48
62544;BME280;48597;49.030;1.822;2022-08-19T12:54:33;100937.19;;;25.93;46.54
62544;BME280;48597;49.030;1.822;2022-08-19T12:56:58;100939.88;;;25.93;46.61
62544;BME280;48597;49.030;1.822;2022-08-19T12:59:25;100942.78;;;25.92;46.60
62544;BME280;48597;49.030;1.822;2022-08-19T13:01:51;100946.50;;;25.91;46.48
62544;BME280;48597;49.030;1.822;2022-08-19T13:04:17;100940.28;;;25.90;46.50